Time;durP1;ratioP1;P1;durP2;ratioP2;P2;SDS_P1;SDS_P2;PMS_P1;PMS_P2;Temp;Humidity;BMP_temperature;BMP_pressure;BME280_temperature;BME280_humidity;BME280_pressure;Samples;Min_cycle;Max_cycle;Signal;HPM_P1;HPM_P2
2022/07/23 00:02:07;;;;;;;;;;;;;;;15.96;52.66406;102043.4;;;;-79
2022/07/23 00:07:08;;;;;;;;;;;;;;;15.87;52.72168;102043.4;;;;-80
2022/07/23 00:08:11;;;;;;;3.1;1.4;;;;;;;;;;;;;-79
2022/07/23 00:12:08;;;;;;;;;;;;;;;15.83;52.78418;102042.8;;;;-78
2022/07/23 00:17:07;;;;;;;;;;;;;;;15.78;52.94727;102037.9;;;;-79
2022/07/23 00:22:07;;;;;;;;;;;;;;;15.7;52.87109;102035.1;;;;-80
2022/07/23 00:27:07;;;;;;;;;;;;;;;15.68;53.08203;102032.6;;;;-79
2022/07/23 00:32:08;;;;;;;;;;;;;;;15.58;53.05957;102022.7;;;;-79
2022/07/23 00:37:06;;;;;;;;;;;;;;;15.52;53.23145;102018.1;;;;-81
2022/07/23 00:38:11;;;;;;;3.4;1.6;;;;;;;;;;;;;-81
2022/07/23 00:42:06;;;;;;;;;;;;;;;15.44;53.53906;102017.5;;;;-80
2022/07/23 00:47:08;;;;;;;;;;;;;;;15.41;53.37793;102027.2;;;;-80
2022/07/23 00:52:10;;;;;;;;;;;;;;;15.4;53.4209;102018.8;;;;-79
2022/07/23 00:57:09;;;;;;;;;;;;;;;15.31;53.59082;102016.7;;;;-79
2022/07/23 01:02:15;;;;;;;;;;;;;;;15.27;53.59766;102006.8;;;;-80
2022/07/23 01:08:46;;;;;;;;;;;;;;;15.45;53.39355;102004.1;;;;-80
2022/07/23 01:16:36;;;;;;;;;;;;;;;15.12;53.74805;101995.9;;;;-80
2022/07/23 01:21:28;;;;;;;;;;;;;;;15.08;53.82129;101997;;;;-79
2022/07/23 01:26:24;;;;;;;;;;;;;;;15.04;53.7041;101990.5;;;;-79
2022/07/23 01:31:24;;;;;;;;;;;;;;;14.99;53.69824;101993.3;;;;-79
2022/07/23 01:36:23;;;;;;;;;;;;;;;14.95;53.74902;101986.3;;;;-80
2022/07/23 01:38:14;;;;;;;4.3;1.4;;;;;;;;;;;;;-78
2022/07/23 01:41:27;;;;;;;;;;;;;;;14.89;53.62988;101979.8;;;;-79
2022/07/23 01:46:24;;;;;;;;;;;;;;;14.86;53.7832;101985.5;;;;-80
2022/07/23 01:51:22;;;;;;;;;;;;;;;14.82;53.78906;101982.3;;;;-79
2022/07/23 01:56:25;;;;;;;;;;;;;;;14.76;53.92969;101975.4;;;;-80
2022/07/23 02:01:33;;;;;;;;;;;;;;;14.67;53.97363;101972.3;;;;-78
2022/07/23 02:06:24;;;;;;;;;;;;;;;14.66;54.04004;101976;;;;-79
2022/07/23 02:08:29;;;;;;;3.2;1.5;;;;;;;;;;;;;-78
2022/07/23 02:11:31;;;;;;;;;;;;;;;14.6;53.91992;101980.5;;;;-79
2022/07/23 02:16:24;;;;;;;;;;;;;;;14.58;54.04102;101969;;;;-79
2022/07/23 02:21:25;;;;;;;;;;;;;;;14.56;53.9375;101973.9;;;;-78
2022/07/23 02:26:25;;;;;;;;;;;;;;;14.52;54.06836;101985.8;;;;-81
2022/07/23 02:31:23;;;;;;;;;;;;;;;14.46;54.08301;101983.1;;;;-79
2022/07/23 02:36:24;;;;;;;;;;;;;;;14.45;54.13867;101981.6;;;;-79
2022/07/23 02:38:20;;;;;;;3.5;1.4;;;;;;;;;;;;;-80
2022/07/23 02:41:24;;;;;;;;;;;;;;;14.41;54.21289;101993.8;;;;-80
2022/07/23 02:46:22;;;;;;;;;;;;;;;14.37;54.37598;102008;;;;-79
2022/07/23 02:51:22;;;;;;;;;;;;;;;14.32;54.56152;102014.6;;;;-79
2022/07/23 02:56:22;;;;;;;;;;;;;;;14.28;54.48926;102021.7;;;;-79
2022/07/23 03:01:22;;;;;;;;;;;;;;;14.23;54.68359;102019.1;;;;-79
2022/07/23 03:06:23;;;;;;;;;;;;;;;14.19;54.75879;102012.9;;;;-79
2022/07/23 03:08:21;;;;;;;2.4;1.5;;;;;;;;;;;;;-79
2022/07/23 03:11:26;;;;;;;;;;;;;;;14.16;54.87793;102008.7;;;;-80
2022/07/23 03:16:32;;;;;;;;;;;;;;;14.11;54.99609;102008.6;;;;-81
2022/07/23 03:21:31;;;;;;;;;;;;;;;14.07;54.91211;102009.3;;;;-80
2022/07/23 03:26:35;;;;;;;;;;;;;;;14.01;55.01758;102009.2;;;;-79
2022/07/23 03:31:23;;;;;;;;;;;;;;;13.98;55.14746;102006.2;;;;-80
2022/07/23 03:36:25;;;;;;;;;;;;;;;13.95;55.13281;102014;;;;-80
2022/07/23 03:38:22;;;;;;;2.4;1.6;;;;;;;;;;;;;-80
2022/07/23 03:41:25;;;;;;;;;;;;;;;13.91;55.29688;102004.4;;;;-80
2022/07/23 03:46:28;;;;;;;;;;;;;;;13.89;55.35059;101998.5;;;;-79
2022/07/23 03:51:25;;;;;;;;;;;;;;;13.86;55.39063;102002.5;;;;-80
2022/07/23 03:56:25;;;;;;;;;;;;;;;13.8;55.57422;102002.2;;;;-79
2022/07/23 04:01:26;;;;;;;;;;;;;;;13.77;55.49316;101996.5;;;;-77
2022/07/23 04:06:24;;;;;;;;;;;;;;;13.74;55.56836;102001.3;;;;-80
2022/07/23 04:08:33;;;;;;;2.8;1.6;;;;;;;;;;;;;-78
2022/07/23 04:11:31;;;;;;;;;;;;;;;13.75;55.5791;102002.2;;;;-80
2022/07/23 04:16:25;;;;;;;;;;;;;;;13.72;55.50879;101998.3;;;;-80
2022/07/23 04:21:25;;;;;;;;;;;;;;;13.73;55.53223;102003.5;;;;-79
2022/07/23 04:26:27;;;;;;;;;;;;;;;13.75;55.52344;102002.5;;;;-79
2022/07/23 04:31:28;;;;;;;;;;;;;;;13.73;55.5332;102008.3;;;;-79
2022/07/23 04:36:27;;;;;;;;;;;;;;;13.74;55.63477;102013.2;;;;-81
2022/07/23 04:38:29;;;;;;;3.2;1.5;;;;;;;;;;;;;-79
2022/07/23 04:41:23;;;;;;;;;;;;;;;13.79;55.62988;102014.4;;;;-81
2022/07/23 04:46:34;;;;;;;;;;;;;;;13.83;55.6123;102016.3;;;;-80
2022/07/23 04:51:23;;;;;;;;;;;;;;;13.85;55.7832;102020.9;;;;-79
2022/07/23 04:56:28;;;;;;;;;;;;;;;13.87;55.83008;102018.6;;;;-78
2022/07/23 05:01:43;;;;;;;;;;;;;;;;;;;;;
2022/07/23 05:06:24;;;;;;;;;;;;;;;13.94;55.80664;102025.4;;;;-78
2022/07/23 05:08:37;;;;;;;2.4;1.2;;;;;;;;;;;;;-81
2022/07/23 05:11:23;;;;;;;;;;;;;;;14.01;55.63672;102019.1;;;;-79
2022/07/23 05:16:24;;;;;;;;;;;;;;;14.06;55.62012;102011.2;;;;-80
2022/07/23 05:21:22;;;;;;;;;;;;;;;14.16;55.30566;102018.3;;;;-79
2022/07/23 05:26:25;;;;;;;;;;;;;;;14.2;55.24316;102011;;;;-79
2022/07/23 05:49:19;;;;;;;;;;;;;;;15.85;53.11426;102018.8;;;;-85
2022/07/23 06:09:14;;;;;;;;;;;;;;;18.35;49.0752;102020.5;;;;-79
2022/07/23 06:13:13;;;;;;;;;;;;;;;18.1;49.55957;102019.7;;;;-81
2022/07/23 06:23:31;;;;;;;;;;;;;;;18.1;49.96875;102031.1;;;;-79
2022/07/23 06:29:32;;;;;;;;;;;;;;;18.75;49.58594;102040.6;;;;-84
2022/07/23 06:34:36;;;;;;;;;;;;;;;18.95;49.16504;102035.8;;;;-81
2022/07/23 06:38:16;;;;;;;;;;;;;;;18.82;49.58203;102042.2;;;;-82
2022/07/23 06:38:54;;;;;;;2.6;1;;;;;;;;;;;;;-82
2022/07/23 06:43:24;;;;;;;;;;;;;;;18.91;49.44531;102045.7;;;;-83
2022/07/23 06:48:22;;;;;;;;;;;;;;;19.26;49.15332;102052.5;;;;-84
2022/07/23 07:07:57;;;;;;;;;;;;;;;21.92;45.36523;102056.4;;;;-83
2022/07/23 07:09:05;;;;;;;1.7;0.9;;;;;;;;;;;;;-84
2022/07/23 07:37:23;;;;;;;;;;;;;;;24.55;41.82227;102078.2;;;;-79
2022/07/23 07:42:36;;;;;;;;;;;;;;;24.78;41.87793;102083.7;;;;-80
2022/07/23 07:47:20;;;;;;;;;;;;;;;25.08;41.23535;102089;;;;-81
2022/07/23 08:01:44;;;;;;;;;;;;;;;26.1;40.23828;102086.6;;;;-81
2022/07/23 08:05:25;;;;;;;;;;;;;;;26.01;40.39258;102079.8;;;;-80
2022/07/23 08:13:46;;;;;;;;;;;;;;;26.84;39.06055;102085.5;;;;-79
2022/07/23 09:33:08;;;;;;;;;;;;;;;31.33;33.37695;102097.8;;;;-80
2022/07/23 10:02:30;;;;;;;;;;;;;;;32.47;31.8457;102093.1;;;;-82
2022/07/23 10:20:06;;;;;;;;;;;;;;;32.99;31.31445;102107.1;;;;-81
2022/07/23 10:25:05;;;;;;;;;;;;;;;33.23;31.55566;102099.8;;;;-81
2022/07/23 10:30:53;;;;;;;;;;;;;;;;;;;;;
2022/07/23 11:04:58;;;;;;;;;;;;;;;34.48;31.06055;102095.5;;;;-81
2022/07/23 11:56:03;;;;;;;;;;;;;;;35.63;29.0957;102090.9;;;;-79
2022/07/23 12:40:43;;;;;;;;;;;;;;;;;;;;;
2022/07/23 12:57:11;;;;;;;;;;;;;;;37.29;27.30371;102050.7;;;;-87
2022/07/23 13:01:48;;;;;;;;;;;;;;;37.33;28.46387;102048.8;;;;-88
2022/07/23 13:09:47;;;;;;;2.6;1.1;;;;;;;;;;;;;-88
2022/07/23 15:16:38;;;;;;;;;;;;;;;35.61;29.20117;102016.4;;;;-79
2022/07/23 15:38:36;;;;;;;;;;;;;;;35.94;28.99609;101996.7;;;;-77
2022/07/23 16:10:46;;;;;;;22.1;8.5;;;;;;;;;;;;;-81
2022/07/23 16:37:06;;;;;;;;;;;;;;;34.71;29.99805;101983.9;;;;-81
2022/07/23 17:10:36;;;;;;;;;;;;;;;;;;;;;
2022/07/23 17:11:24;;;;;;;5.9;2.7;;;;;;;;;;;;;-84
2022/07/23 18:28:28;;;;;;;;;;;;;;;29.49;34.81055;101979.2;;;;-81
2022/07/23 18:44:35;;;;;;;;;;;;;;;29.01;34.85547;101976;;;;-73
2022/07/23 18:47:26;;;;;;;;;;;;;;;28.65;35.0957;101974.9;;;;-76
2022/07/23 18:52:26;;;;;;;;;;;;;;;28.43;35.19531;101978.2;;;;-77
2022/07/23 18:57:26;;;;;;;;;;;;;;;28.18;35.25879;101979.3;;;;-75
2022/07/23 19:02:26;;;;;;;;;;;;;;;27.92;35.35449;101973.3;;;;-78
2022/07/23 19:07:26;;;;;;;;;;;;;;;27.65;35.46191;101965.8;;;;-76
2022/07/23 19:10:37;;;;;;;3.5;1.7;;;;;;;;;;;;;-77
2022/07/23 19:12:29;;;;;;;;;;;;;;;27.38;35.53418;101964.1;;;;-77
2022/07/23 19:17:27;;;;;;;;;;;;;;;27.1;35.44238;101962.2;;;;-77
2022/07/23 19:22:26;;;;;;;;;;;;;;;26.81;35.76758;101963.2;;;;-77
2022/07/23 19:27:26;;;;;;;;;;;;;;;26.51;35.96582;101963.5;;;;-77
2022/07/23 19:32:26;;;;;;;;;;;;;;;26.22;36.31348;101965.3;;;;-76
2022/07/23 19:37:26;;;;;;;;;;;;;;;25.95;36.66309;101975.8;;;;-76
2022/07/23 19:40:42;;;;;;;4.9;2;;;;;;;;;;;;;-76
2022/07/23 19:42:26;;;;;;;;;;;;;;;25.67;37.04785;101975.3;;;;-77
2022/07/23 19:47:28;;;;;;;;;;;;;;;25.43;37.39844;101983.2;;;;-77
2022/07/23 19:52:26;;;;;;;;;;;;;;;25.18;37.68945;101992;;;;-77
2022/07/23 19:57:26;;;;;;;;;;;;;;;24.94;38.09863;101982.3;;;;-76
2022/07/23 20:02:26;;;;;;;;;;;;;;;24.69;38.7373;101987.3;;;;-77
2022/07/23 20:07:26;;;;;;;;;;;;;;;24.47;38.89063;101987.5;;;;-77
2022/07/23 20:10:48;;;;;;;3.3;2;;;;;;;;;;;;;-76
2022/07/23 20:12:26;;;;;;;;;;;;;;;24.24;39.4834;101988.9;;;;-77
2022/07/23 20:17:26;;;;;;;;;;;;;;;24.03;39.97266;101983.9;;;;-78
2022/07/23 20:22:27;;;;;;;;;;;;;;;23.84;40.16406;101983.3;;;;-76
2022/07/23 20:27:26;;;;;;;;;;;;;;;23.66;40.29688;101988.4;;;;-74
2022/07/23 20:32:26;;;;;;;;;;;;;;;23.47;40.56836;101984.5;;;;-74
2022/07/23 20:37:28;;;;;;;;;;;;;;;23.3;41.12988;101977.9;;;;-72
2022/07/23 20:40:50;;;;;;;3.1;2.1;;;;;;;;;;;;;-76
2022/07/23 20:42:26;;;;;;;;;;;;;;;23.14;41.5293;101972;;;;-77
2022/07/23 20:47:26;;;;;;;;;;;;;;;22.97;41.8252;101973.4;;;;-78
2022/07/23 20:52:26;;;;;;;;;;;;;;;22.83;42.01855;101974.4;;;;-76
2022/07/23 20:57:29;;;;;;;;;;;;;;;22.71;42.21484;101975.4;;;;-77
2022/07/23 21:02:26;;;;;;;;;;;;;;;22.56;42.82129;101973.2;;;;-76
2022/07/23 21:07:26;;;;;;;;;;;;;;;22.44;42.99316;101972.7;;;;-75
2022/07/23 21:10:53;;;;;;;4.2;2.3;;;;;;;;;;;;;-76
2022/07/23 21:12:26;;;;;;;;;;;;;;;22.29;43.12891;101970.3;;;;-76
2022/07/23 21:17:26;;;;;;;;;;;;;;;22.18;43.20898;101971.9;;;;-77
2022/07/23 21:22:26;;;;;;;;;;;;;;;22.05;43.35742;101976.2;;;;-77
2022/07/23 21:27:26;;;;;;;;;;;;;;;21.91;43.60938;101969.1;;;;-76
2022/07/23 22:18:41;;;;;;;;;;;;;;;21.13;45.57129;101965;;;;-80
2022/07/23 23:06:09;;;;;;;;;;;;;;;20.69;48.56738;101938.1;;;;-82
